Time;durP1;ratioP1;P1;durP2;ratioP2;P2;SDS_P1;SDS_P2;PMS_P1;PMS_P2;Temp;Humidity;BMP_temperature;BMP_pressure;BME280_temperature;BME280_humidity;BME280_pressure;Samples;Min_cycle;Max_cycle;Signal;HPM_P1;HPM_P2
2021/03/11 00:00:13;;;;;;;12.87;10.47;;;8.20;97.50;;;;;;5094156;28;20533;-72
2021/03/11 00:02:40;;;;;;;12.10;10.80;;;8.20;97.10;;;;;;5094171;28;20442;-70
2021/03/11 00:05:09;;;;;;;13.17;11.03;;;8.20;96.90;;;;;;5093461;28;20556;-71
2021/03/11 00:07:36;;;;;;;12.07;10.40;;;8.30;96.90;;;;;;5093615;28;20515;-71
2021/03/11 00:10:04;;;;;;;15.60;11.30;;;8.40;96.60;;;;;;5093561;28;20495;-71
2021/03/11 00:12:30;;;;;;;14.07;10.83;;;8.30;96.90;;;;;;5093526;28;20509;-72
2021/03/11 00:14:57;;;;;;;18.00;11.10;;;8.30;96.60;;;;;;5093351;28;20541;-72
2021/03/11 00:17:24;;;;;;;14.00;10.77;;;8.30;96.90;;;;;;5093986;28;20830;-70
2021/03/11 00:19:50;;;;;;;15.60;11.37;;;8.30;97.00;;;;;;5093392;28;20478;-70
2021/03/11 00:22:17;;;;;;;12.90;11.00;;;8.40;96.50;;;;;;5093389;28;21014;-70
2021/03/11 00:24:43;;;;;;;13.53;10.37;;;8.40;96.40;;;;;;5092951;28;20486;-70
2021/03/11 00:27:10;;;;;;;13.70;10.40;;;8.40;96.40;;;;;;5093322;28;20947;-71
2021/03/11 00:29:36;;;;;;;17.43;11.97;;;8.40;96.50;;;;;;5093297;28;20533;-71
2021/03/11 00:32:03;;;;;;;15.40;11.03;;;8.40;96.70;;;;;;5093238;28;20573;-71
2021/03/11 00:34:30;;;;;;;14.73;10.63;;;8.40;96.70;;;;;;5092320;28;20928;-71
2021/03/11 00:36:56;;;;;;;11.03;9.60;;;8.40;96.60;;;;;;5092961;28;20522;-73
2021/03/11 00:39:23;;;;;;;13.93;10.97;;;8.40;96.80;;;;;;5092786;28;20861;-73
2021/03/11 00:41:49;;;;;;;12.17;10.40;;;8.40;96.70;;;;;;5093108;28;20446;-72
2021/03/11 00:44:15;;;;;;;12.33;9.70;;;8.50;96.80;;;;;;5092114;28;20538;-70
2021/03/11 00:46:42;;;;;;;13.60;10.97;;;8.40;97.00;;;;;;5093064;28;20855;-72
2021/03/11 00:49:08;;;;;;;13.57;10.10;;;8.40;96.70;;;;;;5092852;28;20472;-73
2021/03/11 00:51:35;;;;;;;12.37;10.40;;;8.40;96.70;;;;;;5093242;28;20509;-73
2021/03/11 00:54:02;;;;;;;14.63;11.17;;;8.40;96.60;;;;;;5092265;28;20438;-71
2021/03/11 00:56:28;;;;;;;14.10;10.97;;;8.40;96.50;;;;;;5093662;28;20543;-72
2021/03/11 00:58:55;;;;;;;13.27;10.43;;;8.50;96.90;;;;;;5093495;28;20510;-73
2021/03/11 01:01:21;;;;;;;14.20;11.10;;;8.50;96.80;;;;;;5093312;28;20529;-72
2021/03/11 01:03:47;;;;;;;13.83;10.83;;;8.50;96.60;;;;;;5092511;28;21070;-72
2021/03/11 01:06:14;;;;;;;14.23;10.80;;;8.50;96.60;;;;;;5093536;28;20541;-72
2021/03/11 01:08:41;;;;;;;12.27;10.87;;;8.50;96.50;;;;;;5092739;28;20533;-71
2021/03/11 01:11:07;;;;;;;12.00;10.13;;;8.50;96.70;;;;;;5093306;28;20533;-72
2021/03/11 01:13:34;;;;;;;17.73;10.70;;;8.60;96.90;;;;;;5092631;28;20836;-72
2021/03/11 01:16:00;;;;;;;12.73;10.50;;;8.60;96.70;;;;;;5092986;28;20497;-71
2021/03/11 01:18:27;;;;;;;15.23;10.80;;;8.60;96.80;;;;;;5093089;28;20448;-71
2021/03/11 01:20:54;;;;;;;14.23;9.73;;;8.60;96.80;;;;;;5092580;28;20451;-71
2021/03/11 01:23:20;;;;;;;14.37;10.70;;;8.60;97.00;;;;;;5092276;28;21032;-70
2021/03/11 01:25:47;;;;;;;13.90;11.27;;;8.60;97.10;;;;;;5092956;28;20906;-70
2021/03/11 01:28:14;;;;;;;14.30;11.30;;;8.60;96.90;;;;;;5094840;28;20535;-72
2021/03/11 01:30:40;;;;;;;12.33;10.27;;;8.60;97.30;;;;;;5098413;28;20466;-72
2021/03/11 01:33:07;;;;;;;13.83;11.00;;;8.60;97.20;;;;;;5097756;28;20572;-72
2021/03/11 01:35:33;;;;;;;12.83;10.20;;;8.60;97.10;;;;;;5096702;28;20553;-72
2021/03/11 01:37:59;;;;;;;13.60;10.57;;;8.60;97.10;;;;;;5092450;28;20529;-72
2021/03/11 01:40:26;;;;;;;13.77;11.47;;;8.70;97.60;;;;;;5092413;28;20478;-72
2021/03/11 01:42:53;;;;;;;14.63;10.93;;;8.60;97.30;;;;;;5092398;28;20579;-72
2021/03/11 01:45:21;;;;;;;13.37;10.60;;;8.60;97.40;;;;;;5091467;28;20554;-72
2021/03/11 01:47:48;;;;;;;13.43;9.87;;;8.60;97.20;;;;;;5091933;28;20528;-72
2021/03/11 01:50:14;;;;;;;15.03;10.17;;;8.60;97.30;;;;;;5091447;28;20446;-72
2021/03/11 01:52:42;;;;;;;13.17;11.43;;;8.70;97.40;;;;;;5091946;28;20568;-72
2021/03/11 01:55:10;;;;;;;15.93;9.67;;;8.70;97.40;;;;;;5091070;28;20933;-72
2021/03/11 01:57:37;;;;;;;11.30;9.57;;;8.70;97.50;;;;;;5091740;28;20449;-73
2021/03/11 02:00:08;;;;;;;12.20;9.40;;;8.70;97.60;;;;;;5091354;28;20528;-73
2021/03/11 02:02:34;;;;;;;11.00;8.80;;;8.70;97.70;;;;;;5091330;28;20525;-73
2021/03/11 02:05:01;;;;;;;12.57;10.60;;;8.70;97.70;;;;;;5090771;28;20558;-73
2021/03/11 02:07:28;;;;;;;11.43;8.20;;;8.70;98.00;;;;;;5091370;28;20481;-73
2021/03/11 02:09:54;;;;;;;9.77;8.40;;;8.70;98.20;;;;;;5091328;28;20520;-73
2021/03/11 02:12:26;;;;;;;10.10;7.97;;;8.70;98.10;;;;;;5091251;28;20926;-73
2021/03/11 02:15:02;;;;;;;10.00;8.17;;;8.80;97.60;;;;;;5090646;28;20905;-72
2021/03/11 02:17:34;;;;;;;11.37;8.70;;;8.80;97.90;;;;;;5091241;28;20445;-72
2021/03/11 02:20:36;;;;;;;10.13;7.83;;;8.80;98.30;;;;;;5091198;28;20920;-72
2021/03/11 02:23:23;;;;;;;11.37;8.03;;;8.70;98.30;;;;;;5090990;28;20532;-72
2021/03/11 02:25:57;;;;;;;11.17;8.63;;;8.80;97.90;;;;;;5090961;28;20541;-73
2021/03/11 02:28:32;;;;;;;14.30;8.53;;;8.80;98.40;;;;;;5091190;28;20452;-72
2021/03/11 02:30:59;;;;;;;10.07;8.30;;;8.80;98.50;;;;;;5090910;28;20437;-72
2021/03/11 02:33:28;;;;;;;9.30;6.90;;;8.80;98.20;;;;;;5090391;28;20448;-72
2021/03/11 02:35:56;;;;;;;10.60;7.57;;;8.70;98.50;;;;;;5090853;28;20553;-72
2021/03/11 02:38:23;;;;;;;10.10;8.10;;;8.70;98.30;;;;;;5090742;28;20965;-72
2021/03/11 02:40:51;;;;;;;10.60;7.50;;;8.80;99.10;;;;;;5091274;28;20445;-72
2021/03/11 02:43:19;;;;;;;11.07;7.97;;;8.80;99.20;;;;;;5093924;28;20526;-72
2021/03/11 02:45:46;;;;;;;9.90;6.87;;;8.70;98.90;;;;;;5095047;28;20983;-72
2021/03/11 02:48:15;;;;;;;8.97;6.53;;;8.80;99.30;;;;;;5095233;28;20481;-72
2021/03/11 02:50:42;;;;;;;9.10;6.80;;;8.80;99.70;;;;;;5094868;28;20521;-72
2021/03/11 02:53:11;;;;;;;7.43;6.30;;;8.70;99.80;;;;;;5094873;28;20576;-72
2021/03/11 02:55:40;;;;;;;8.23;6.00;;;8.80;99.90;;;;;;5094419;28;21047;-72
2021/03/11 02:58:09;;;;;;;8.37;7.03;;;8.70;99.90;;;;;;5094863;28;20533;-72
2021/03/11 03:00:37;;;;;;;7.33;6.20;;;8.70;99.90;;;;;;5094934;28;20442;-72
2021/03/11 03:03:06;;;;;;;7.13;6.43;;;8.70;99.90;;;;;;5094611;28;20446;-72
2021/03/11 03:05:34;;;;;;;10.50;6.60;;;8.60;99.90;;;;;;5094161;28;20468;-72
2021/03/11 03:08:02;;;;;;;9.50;7.33;;;8.60;99.90;;;;;;5094921;28;20909;-72
2021/03/11 03:10:30;;;;;;;10.27;6.70;;;8.60;99.90;;;;;;5094653;28;20586;-72
2021/03/11 03:12:59;;;;;;;8.87;7.37;;;8.60;99.90;;;;;;5094580;28;20576;-72
2021/03/11 03:15:26;;;;;;;9.53;7.53;;;8.60;99.90;;;;;;5094056;28;20548;-72
2021/03/11 03:17:53;;;;;;;8.73;7.17;;;8.70;99.90;;;;;;5094771;28;20533;-72
2021/03/11 03:20:22;;;;;;;9.30;7.63;;;8.70;99.90;;;;;;5094904;28;20477;-72
2021/03/11 03:22:50;;;;;;;10.73;8.07;;;8.70;99.60;;;;;;5094997;28;20482;-72
2021/03/11 03:25:17;;;;;;;10.10;7.67;;;8.70;99.90;;;;;;5094879;28;20541;-72
2021/03/11 03:27:43;;;;;;;8.17;6.97;;;8.70;99.50;;;;;;5095292;28;20472;-72
2021/03/11 03:30:12;;;;;;;9.67;7.70;;;8.70;99.90;;;;;;5094876;28;20890;-72
2021/03/11 03:32:39;;;;;;;9.90;8.30;;;8.70;99.70;;;;;;5094352;28;20573;-72
2021/03/11 03:35:08;;;;;;;11.40;9.47;;;8.60;99.90;;;;;;5093572;28;20493;-72
2021/03/11 03:37:35;;;;;;;10.03;8.43;;;8.40;99.90;;;;;;5098032;28;20537;-72
2021/03/11 03:40:03;;;;;;;10.70;8.37;;;8.30;99.90;;;;;;5096455;28;20525;-72
2021/03/11 03:42:33;;;;;;;10.77;8.70;;;8.20;99.90;;;;;;5093422;28;20446;-72
2021/03/11 03:45:04;;;;;;;13.00;9.43;;;8.10;99.90;;;;;;5092196;28;21060;-72
2021/03/11 03:47:31;;;;;;;10.90;9.87;;;8.10;99.90;;;;;;5094066;28;20533;-72
2021/03/11 03:49:58;;;;;;;12.20;8.60;;;8.00;99.90;;;;;;5093953;28;20525;-72
2021/03/11 03:52:27;;;;;;;14.10;9.37;;;8.00;99.90;;;;;;5093936;28;20837;-73
2021/03/11 03:54:56;;;;;;;14.40;8.57;;;8.00;99.90;;;;;;5092337;28;20462;-72
2021/03/11 03:57:26;;;;;;;12.23;9.43;;;8.00;99.90;;;;;;5093752;28;20533;-72
2021/03/11 03:59:53;;;;;;;12.23;8.80;;;8.00;99.90;;;;;;5093720;28;21003;-72
2021/03/11 04:02:22;;;;;;;17.73;9.00;;;8.10;99.90;;;;;;5093687;28;20583;-72
2021/03/11 04:04:51;;;;;;;10.40;9.27;;;8.10;99.90;;;;;;5092751;28;20488;-72
2021/03/11 04:07:21;;;;;;;12.57;9.60;;;8.20;99.90;;;;;;5093419;28;20898;-71
2021/03/11 04:09:48;;;;;;;13.97;8.83;;;8.30;99.90;;;;;;5093460;28;20449;-72
2021/03/11 04:12:16;;;;;;;13.90;9.37;;;8.30;99.90;;;;;;5093466;28;20577;-72
2021/03/11 04:14:45;;;;;;;11.17;8.70;;;8.30;99.90;;;;;;5092582;28;20498;-72
2021/03/11 04:17:12;;;;;;;12.87;9.20;;;8.30;99.90;;;;;;5093085;28;20533;-72
2021/03/11 04:19:40;;;;;;;10.53;8.77;;;8.40;99.90;;;;;;5093315;28;20453;-72
2021/03/11 04:22:07;;;;;;;13.47;10.13;;;8.40;99.90;;;;;;5093056;28;20537;-72
2021/03/11 04:24:34;;;;;;;10.27;8.47;;;8.40;99.90;;;;;;5092427;28;20494;-72
2021/03/11 04:27:02;;;;;;;13.60;9.00;;;8.50;99.90;;;;;;5093487;28;20434;-72
2021/03/11 04:29:29;;;;;;;10.70;8.60;;;8.50;99.90;;;;;;5093401;28;20533;-72
2021/03/11 04:31:57;;;;;;;10.60;9.03;;;8.60;99.90;;;;;;5093109;28;21050;-72
2021/03/11 04:34:24;;;;;;;13.13;9.30;;;8.60;99.90;;;;;;5092332;28;20533;-72
2021/03/11 04:36:51;;;;;;;12.47;9.70;;;8.60;99.90;;;;;;5092905;28;20525;-72
2021/03/11 04:39:19;;;;;;;12.40;9.17;;;8.60;99.90;;;;;;5092995;28;21036;-72
2021/03/11 04:41:46;;;;;;;11.27;8.93;;;8.60;99.90;;;;;;5093099;28;20466;-72
2021/03/11 04:44:13;;;;;;;9.33;8.37;;;8.70;99.90;;;;;;5092189;28;20530;-72
2021/03/11 04:46:40;;;;;;;11.00;7.90;;;8.80;99.90;;;;;;5092584;28;20466;-72
2021/03/11 04:49:08;;;;;;;8.67;7.43;;;8.80;99.90;;;;;;5093078;28;20584;-72
2021/03/11 04:51:36;;;;;;;7.70;6.30;;;8.90;99.90;;;;;;5092446;28;20480;-72
2021/03/11 04:54:02;;;;;;;8.90;7.07;;;8.90;99.90;;;;;;5092033;28;20533;-72
2021/03/11 04:56:29;;;;;;;13.80;7.20;;;9.00;99.90;;;;;;5092533;28;20494;-71
2021/03/11 04:58:56;;;;;;;12.83;5.23;;;9.00;99.90;;;;;;5092780;28;20461;-72
2021/03/11 05:01:25;;;;;;;8.90;5.43;;;9.10;99.90;;;;;;5092489;28;20525;-72
2021/03/11 05:03:53;;;;;;;6.37;4.73;;;9.20;99.90;;;;;;5091742;28;20477;-71
2021/03/11 05:06:20;;;;;;;7.33;4.27;;;9.30;99.90;;;;;;5091453;28;20470;-71
2021/03/11 05:08:46;;;;;;;4.47;3.43;;;9.40;99.90;;;;;;5092553;28;20530;-72
2021/03/11 05:11:13;;;;;;;7.33;4.53;;;9.50;99.90;;;;;;5092430;28;20446;-72
2021/03/11 05:13:41;;;;;;;4.50;3.63;;;9.70;99.90;;;;;;5091640;28;20917;-71
2021/03/11 05:16:07;;;;;;;6.43;2.90;;;9.80;99.90;;;;;;5092169;28;20544;-72
2021/03/11 05:18:34;;;;;;;3.80;2.80;;;9.90;99.90;;;;;;5092084;28;20545;-71
2021/03/11 05:21:02;;;;;;;3.40;2.80;;;10.00;99.90;;;;;;5092457;28;20801;-72
2021/03/11 05:23:29;;;;;;;8.03;3.70;;;10.00;99.90;;;;;;5091313;28;20482;-71
2021/03/11 05:25:56;;;;;;;4.50;2.63;;;10.10;99.90;;;;;;5091812;28;20541;-71
2021/03/11 05:28:22;;;;;;;5.20;3.20;;;10.20;99.90;;;;;;5092237;28;20477;-72
2021/03/11 05:30:49;;;;;;;4.00;3.03;;;10.20;99.90;;;;;;5091815;28;20987;-72
2021/03/11 05:33:15;;;;;;;4.80;3.23;;;10.20;99.90;;;;;;5091735;28;21074;-71
2021/03/11 05:35:42;;;;;;;4.00;2.90;;;10.30;99.90;;;;;;5091226;28;20494;-71
2021/03/11 05:38:08;;;;;;;5.20;3.33;;;10.30;99.90;;;;;;5091639;28;20525;-71
2021/03/11 05:40:36;;;;;;;4.77;3.10;;;10.30;99.90;;;;;;5091781;28;20524;-71
2021/03/11 05:43:04;;;;;;;4.93;3.30;;;10.30;99.90;;;;;;5091661;28;20525;-71
2021/03/11 05:45:32;;;;;;;5.10;2.80;;;10.30;99.90;;;;;;5090805;28;20541;-71
2021/03/11 05:47:59;;;;;;;5.83;3.60;;;10.30;99.90;;;;;;5091406;28;20538;-72
2021/03/11 05:50:26;;;;;;;6.30;3.57;;;10.30;99.90;;;;;;5091458;28;20446;-72
2021/03/11 05:52:53;;;;;;;6.27;3.00;;;10.30;99.90;;;;;;5091469;28;20484;-71
2021/03/11 05:55:20;;;;;;;4.13;3.00;;;10.30;99.90;;;;;;5090729;28;20549;-72
2021/03/11 05:57:47;;;;;;;4.77;2.77;;;10.30;99.90;;;;;;5091683;28;20529;-72
2021/03/11 06:00:16;;;;;;;4.40;3.00;;;10.30;99.90;;;;;;5091849;28;20485;-74
2021/03/11 06:02:44;;;;;;;4.77;2.63;;;10.30;99.90;;;;;;5092039;28;20560;-70
2021/03/11 06:05:12;;;;;;;4.27;3.53;;;10.30;99.90;;;;;;5090647;28;20572;-74
2021/03/11 06:07:43;;;;;;;4.77;2.90;;;10.30;99.90;;;;;;5091123;28;20932;-72
2021/03/11 06:10:11;;;;;;;5.00;3.37;;;10.30;99.90;;;;;;5091119;28;20446;-72
2021/03/11 06:12:38;;;;;;;5.63;3.17;;;10.30;99.90;;;;;;5086465;28;20474;-73
2021/03/11 06:15:12;;;;;;;5.80;3.03;;;10.30;99.90;;;;;;5089125;28;20497;-73
2021/03/11 06:17:40;;;;;;;4.97;2.80;;;10.40;99.90;;;;;;5092487;28;21163;-72
2021/03/11 06:20:08;;;;;;;4.83;2.80;;;10.40;99.90;;;;;;5098474;28;20533;-72
2021/03/11 06:22:35;;;;;;;4.20;2.93;;;10.30;99.90;;;;;;5095569;28;20477;-71
2021/03/11 06:25:02;;;;;;;5.97;2.70;;;10.30;99.90;;;;;;5089115;28;20489;-69
2021/03/11 06:27:28;;;;;;;3.97;2.70;;;10.30;99.90;;;;;;5090701;28;21191;-68
2021/03/11 06:29:56;;;;;;;4.60;2.63;;;10.30;99.90;;;;;;5090965;28;20521;-67
2021/03/11 06:32:25;;;;;;;5.13;3.00;;;10.30;99.90;;;;;;5090830;28;20506;-69
2021/03/11 06:34:52;;;;;;;6.80;2.87;;;10.30;99.90;;;;;;5089940;28;20458;-68
2021/03/11 06:37:35;;;;;;;4.17;2.90;;;10.30;99.90;;;;;;5090850;28;20529;-69
2021/03/11 06:40:13;;;;;;;6.60;2.80;;;10.40;99.90;;;;;;5089471;28;20540;-71
2021/03/11 06:42:40;;;;;;;7.27;3.23;;;10.40;99.90;;;;;;5090022;28;20438;-72
2021/03/11 06:45:20;;;;;;;4.53;2.73;;;10.50;99.90;;;;;;5090014;28;20494;-69
2021/03/11 06:47:48;;;;;;;7.57;2.80;;;10.50;99.90;;;;;;5091074;28;20442;-69
2021/03/11 06:50:14;;;;;;;9.23;3.47;;;10.60;99.90;;;;;;5097653;28;20556;-69
2021/03/11 06:52:40;;;;;;;6.10;3.23;;;10.70;99.90;;;;;;5103573;28;20983;-69
2021/03/11 06:55:10;;;;;;;4.60;2.93;;;10.70;99.90;;;;;;5096639;28;20553;-69
2021/03/11 06:57:37;;;;;;;4.03;2.10;;;10.70;99.90;;;;;;5086968;28;20450;-69
2021/03/11 07:00:16;;;;;;;3.97;2.93;;;10.80;99.90;;;;;;5086672;28;20481;-69
2021/03/11 07:02:51;;;;;;;4.73;2.53;;;10.90;99.90;;;;;;5088456;28;20995;-69
2021/03/11 07:05:18;;;;;;;5.17;2.30;;;11.00;99.90;;;;;;5088021;28;20461;-69
2021/03/11 07:07:44;;;;;;;3.93;2.37;;;11.00;99.90;;;;;;5088730;28;20442;-69
2021/03/11 07:10:23;;;;;;;6.17;3.17;;;11.10;99.90;;;;;;5088583;28;20477;-70
2021/03/11 07:12:51;;;;;;;4.97;2.87;;;11.10;99.90;;;;;;5088414;28;20590;-69
2021/03/11 07:15:19;;;;;;;5.50;2.30;;;11.20;99.90;;;;;;5087796;28;20458;-70
2021/03/11 07:17:45;;;;;;;5.20;2.53;;;11.30;99.90;;;;;;5088501;28;20537;-70
2021/03/11 07:20:14;;;;;;;3.70;2.50;;;11.30;99.90;;;;;;5088480;28;20535;-69
2021/03/11 07:22:57;;;;;;;4.40;2.30;;;11.40;99.90;;;;;;5088330;28;20572;-70
2021/03/11 07:25:29;;;;;;;4.07;2.30;;;11.40;99.90;;;;;;5087885;28;20461;-70
2021/03/11 07:27:56;;;;;;;5.33;2.47;;;11.50;99.90;;;;;;5088373;28;20488;-68
2021/03/11 07:30:25;;;;;;;7.33;3.93;;;11.50;99.90;;;;;;5090976;28;20445;-68
2021/03/11 07:32:57;;;;;;;4.47;2.43;;;11.50;99.90;;;;;;5092367;28;20924;-70
2021/03/11 07:35:27;;;;;;;4.70;2.30;;;11.50;99.90;;;;;;5091684;28;20458;-70
2021/03/11 07:37:57;;;;;;;3.33;2.00;;;11.60;99.90;;;;;;5091936;28;20476;-71
2021/03/11 07:40:25;;;;;;;3.20;2.10;;;11.70;99.90;;;;;;5092013;28;20559;-70
2021/03/11 07:42:52;;;;;;;2.93;1.90;;;11.80;99.90;;;;;;5091767;28;20442;-68
2021/03/11 07:45:19;;;;;;;2.87;1.90;;;11.80;99.90;;;;;;5091342;28;20539;-68
2021/03/11 07:47:46;;;;;;;4.40;2.13;;;11.90;99.90;;;;;;5091722;28;20445;-70
2021/03/11 07:50:13;;;;;;;6.00;2.20;;;11.90;99.90;;;;;;5091769;28;20489;-70
2021/03/11 07:52:42;;;;;;;7.17;2.20;;;11.90;99.90;;;;;;5091336;28;20561;-70
2021/03/11 07:55:10;;;;;;;6.80;1.87;;;11.90;99.90;;;;;;5091438;28;21068;-70
2021/03/11 07:57:40;;;;;;;5.87;2.00;;;12.00;99.90;;;;;;5091844;28;20470;-70
2021/03/11 08:00:09;;;;;;;3.10;2.00;;;12.10;99.90;;;;;;5100811;28;20449;-70
2021/03/11 08:02:38;;;;;;;3.83;2.00;;;12.10;99.90;;;;;;5111491;28;20523;-69
2021/03/11 08:05:06;;;;;;;2.90;1.87;;;12.10;99.90;;;;;;5111333;28;20485;-70
2021/03/11 08:07:32;;;;;;;2.80;1.57;;;12.20;99.90;;;;;;5112663;28;20458;-70
2021/03/11 08:10:00;;;;;;;5.10;1.90;;;12.20;99.90;;;;;;5093150;28;20940;-68
2021/03/11 08:12:32;;;;;;;3.13;1.87;;;12.20;99.90;;;;;;5090539;28;20557;-71
2021/03/11 08:14:59;;;;;;;7.83;2.43;;;12.30;99.90;;;;;;5090911;28;20461;-70
2021/03/11 08:17:46;;;;;;;2.63;1.70;;;12.40;99.90;;;;;;5091876;28;20549;-70
2021/03/11 08:20:39;;;;;;;2.17;1.60;;;12.50;99.90;;;;;;5092029;28;20446;-68
2021/03/11 08:23:11;;;;;;;2.67;1.80;;;12.60;99.90;;;;;;5091306;28;20438;-69
2021/03/11 08:25:45;;;;;;;4.97;1.80;;;12.80;99.90;;;;;;5090765;28;20470;-69
2021/03/11 08:28:47;;;;;;;2.90;2.20;;;12.80;99.90;;;;;;5092233;28;20437;-69
2021/03/11 08:31:14;;;;;;;3.57;2.03;;;12.90;99.90;;;;;;5092020;28;20521;-69
2021/03/11 08:33:51;;;;;;;5.57;2.20;;;13.00;99.90;;;;;;5092153;28;20568;-69
2021/03/11 08:36:37;;;;;;;3.10;2.00;;;13.00;99.90;;;;;;5091640;28;20465;-69
2021/03/11 08:39:29;;;;;;;3.13;1.70;;;13.10;99.90;;;;;;5090859;28;20454;-69
2021/03/11 08:41:56;;;;;;;3.60;1.63;;;13.20;99.90;;;;;;5090274;28;20525;-69
2021/03/11 08:44:44;;;;;;;2.73;1.87;;;13.20;99.90;;;;;;5090345;28;20533;-69
2021/03/11 08:47:12;;;;;;;2.97;1.80;;;13.20;99.90;;;;;;5091021;28;20779;-69
2021/03/11 08:49:44;;;;;;;4.13;1.77;;;13.20;99.90;;;;;;5090940;28;20441;-70
2021/03/11 08:52:41;;;;;;;3.60;1.70;;;13.30;99.90;;;;;;5090204;28;20568;-70
2021/03/11 08:55:36;;;;;;;3.27;1.90;;;13.40;99.90;;;;;;5092665;28;20531;-70
2021/03/11 08:58:04;;;;;;;5.23;1.90;;;13.50;99.90;;;;;;5086966;28;20489;-70
2021/03/11 09:01:02;;;;;;;3.00;1.70;;;13.60;99.90;;;;;;5092271;28;21128;-70
2021/03/11 09:03:36;;;;;;;2.37;1.33;;;13.60;99.90;;;;;;5090795;28;20441;-70
2021/03/11 09:06:03;;;;;;;3.30;1.60;;;13.60;99.90;;;;;;5091240;28;20538;-70
2021/03/11 09:08:30;;;;;;;7.00;1.60;;;13.50;99.90;;;;;;5090465;28;20474;-69
2021/03/11 09:11:08;;;;;;;2.97;1.83;;;13.50;99.90;;;;;;5089986;28;20525;-70
2021/03/11 09:13:36;;;;;;;2.00;1.30;;;13.60;99.90;;;;;;5089518;28;20660;-70
2021/03/11 09:16:02;;;;;;;4.20;1.63;;;13.50;99.90;;;;;;5090027;28;20973;-70
2021/03/11 09:18:29;;;;;;;5.20;1.50;;;13.60;99.90;;;;;;5089765;28;20477;-70
2021/03/11 09:20:58;;;;;;;1.90;1.30;;;13.70;99.90;;;;;;5089789;28;20552;-70
2021/03/11 09:23:37;;;;;;;4.93;1.40;;;13.60;99.90;;;;;;5089058;28;20508;-70
2021/03/11 09:26:03;;;;;;;6.70;1.47;;;13.60;99.90;;;;;;5089879;28;20462;-70
2021/03/11 09:28:30;;;;;;;3.63;1.60;;;13.60;99.90;;;;;;5089691;28;20541;-70
2021/03/11 09:30:57;;;;;;;3.60;1.30;;;13.60;99.90;;;;;;5090854;28;20521;-70
2021/03/11 09:33:24;;;;;;;2.33;1.20;;;13.60;99.90;;;;;;5089704;28;20509;-70
2021/03/11 09:35:51;;;;;;;1.63;1.20;;;13.60;99.90;;;;;;5090209;28;20557;-71
2021/03/11 09:38:22;;;;;;;2.93;1.70;;;13.60;99.90;;;;;;5090218;28;20541;-71
2021/03/11 09:40:51;;;;;;;1.93;1.20;;;13.60;99.90;;;;;;5090299;28;20438;-71
2021/03/11 09:43:26;;;;;;;2.40;1.40;;;13.60;99.90;;;;;;5090234;28;20521;-71
2021/03/11 09:45:56;;;;;;;2.23;1.53;;;13.60;99.90;;;;;;5090801;28;20830;-71
2021/03/11 09:48:25;;;;;;;2.37;1.07;;;13.70;99.90;;;;;;5090753;28;20452;-70
2021/03/11 09:50:58;;;;;;;2.30;1.30;;;13.80;99.90;;;;;;5090448;28;20533;-70
2021/03/11 09:53:32;;;;;;;3.70;1.37;;;13.90;99.90;;;;;;5088813;28;20569;-69
2021/03/11 09:55:59;;;;;;;2.07;1.30;;;14.00;99.90;;;;;;5090305;28;20537;-70
2021/03/11 09:58:26;;;;;;;2.93;1.40;;;14.00;99.90;;;;;;5088520;28;20446;-69
2021/03/11 10:00:53;;;;;;;3.83;1.67;;;13.90;99.90;;;;;;5088492;28;20446;-70
2021/03/11 10:03:23;;;;;;;2.67;1.40;;;13.80;99.90;;;;;;5088576;28;20469;-70
2021/03/11 10:05:55;;;;;;;2.60;1.40;;;13.80;99.90;;;;;;5089175;28;20458;-70
2021/03/11 10:08:27;;;;;;;2.70;1.73;;;13.90;99.90;;;;;;5088666;28;20529;-70
2021/03/11 10:11:15;;;;;;;3.17;1.47;;;13.90;99.90;;;;;;5089184;28;20476;-70
2021/03/11 10:13:47;;;;;;;3.50;1.30;;;13.90;99.90;;;;;;5088259;28;21023;-70
2021/03/11 10:16:15;;;;;;;2.50;1.20;;;14.10;99.90;;;;;;5089173;28;20470;-70
2021/03/11 10:19:03;;;;;;;5.00;1.10;;;14.20;99.90;;;;;;5088913;28;20478;-70
2021/03/11 10:21:30;;;;;;;1.60;1.03;;;14.30;99.90;;;;;;5089111;28;20506;-69
2021/03/11 10:23:57;;;;;;;1.90;1.30;;;14.40;99.90;;;;;;5088223;28;20539;-69
2021/03/11 10:26:25;;;;;;;2.63;1.47;;;14.50;99.90;;;;;;5089213;28;20545;-70
2021/03/11 10:29:00;;;;;;;1.90;1.20;;;14.50;99.90;;;;;;5105777;28;20441;-70
2021/03/11 10:31:27;;;;;;;3.90;1.20;;;14.50;99.90;;;;;;5108453;28;20440;-70
2021/03/11 10:34:02;;;;;;;3.00;1.10;;;14.40;99.90;;;;;;5107250;28;20559;-70
2021/03/11 10:36:29;;;;;;;2.40;1.20;;;14.40;99.90;;;;;;5105370;28;20975;-70
2021/03/11 10:39:08;;;;;;;2.40;1.10;;;14.50;99.90;;;;;;5109003;28;20547;-70
2021/03/11 10:41:36;;;;;;;2.47;1.00;;;14.60;99.90;;;;;;5108892;28;20512;-70
2021/03/11 10:44:08;;;;;;;2.13;1.00;;;14.60;99.90;;;;;;5108795;28;20441;-70
2021/03/11 10:46:34;;;;;;;2.97;1.43;;;14.60;99.90;;;;;;5109124;28;20544;-71
2021/03/11 10:49:01;;;;;;;2.50;1.40;;;14.70;99.90;;;;;;5108930;28;20524;-70
2021/03/11 10:51:30;;;;;;;2.23;0.80;;;14.60;99.90;;;;;;5108676;28;20473;-70
2021/03/11 10:53:59;;;;;;;3.07;1.27;;;14.70;99.90;;;;;;5107774;28;20933;-70
2021/03/11 10:56:26;;;;;;;2.47;1.00;;;14.60;99.90;;;;;;5108891;28;20457;-70
2021/03/11 10:59:01;;;;;;;3.90;1.20;;;14.60;99.90;;;;;;5109020;28;20437;-70
2021/03/11 11:01:28;;;;;;;3.20;0.97;;;14.50;99.90;;;;;;5108685;28;20484;-70
2021/03/11 11:03:55;;;;;;;2.27;0.90;;;14.40;99.90;;;;;;5110351;28;20441;-70
2021/03/11 11:06:24;;;;;;;2.10;1.07;;;14.20;99.90;;;;;;5112761;28;20539;-70
2021/03/11 11:08:51;;;;;;;4.70;1.33;;;13.90;99.90;;;;;;5112762;28;20966;-70
2021/03/11 11:11:19;;;;;;;1.80;1.00;;;13.60;99.90;;;;;;5112820;28;20897;-70
2021/03/11 11:13:46;;;;;;;2.73;1.30;;;13.40;99.90;;;;;;5111909;28;21057;-70
2021/03/11 11:16:13;;;;;;;2.07;1.20;;;13.20;99.90;;;;;;5112344;28;20548;-70
2021/03/11 11:18:39;;;;;;;3.13;2.00;;;13.10;99.90;;;;;;5112725;28;20998;-70
2021/03/11 11:21:06;;;;;;;2.33;1.33;;;13.00;99.90;;;;;;5112275;28;20437;-70
2021/03/11 11:23:34;;;;;;;2.73;1.40;;;12.90;99.90;;;;;;5111684;28;20540;-70
2021/03/11 11:26:00;;;;;;;2.47;1.10;;;12.80;99.90;;;;;;5112108;28;20496;-70
2021/03/11 11:28:27;;;;;;;1.70;0.93;;;12.70;99.90;;;;;;5112315;28;20472;-70
2021/03/11 11:30:54;;;;;;;3.30;1.37;;;12.70;99.90;;;;;;5112702;28;20481;-70
2021/03/11 11:33:20;;;;;;;1.80;0.90;;;12.60;99.90;;;;;;5111985;28;21086;-70
2021/03/11 11:35:49;;;;;;;1.70;1.10;;;12.60;99.90;;;;;;5112235;28;20457;-70
2021/03/11 11:38:15;;;;;;;1.90;1.07;;;12.50;99.90;;;;;;5112484;28;20527;-70
2021/03/11 11:40:42;;;;;;;1.70;0.90;;;12.60;99.90;;;;;;5112401;28;20972;-70
2021/03/11 11:43:09;;;;;;;1.80;1.00;;;12.60;99.90;;;;;;5112722;28;20526;-70
2021/03/11 11:45:36;;;;;;;2.03;1.00;;;12.60;99.90;;;;;;5111386;28;20880;-71
2021/03/11 11:48:02;;;;;;;1.67;0.80;;;12.60;99.90;;;;;;5112005;28;20558;-71
2021/03/11 11:50:28;;;;;;;2.03;0.70;;;12.60;99.90;;;;;;5112079;28;20465;-70
2021/03/11 11:52:55;;;;;;;1.30;0.60;;;12.50;99.90;;;;;;5112321;28;20519;-70
2021/03/11 11:55:21;;;;;;;1.80;0.77;;;12.60;99.90;;;;;;5111680;28;20598;-71
2021/03/11 11:57:48;;;;;;;1.30;0.60;;;12.60;99.90;;;;;;5112315;28;20499;-71
2021/03/11 12:00:17;;;;;;;2.80;0.70;;;12.70;99.90;;;;;;5112350;28;20836;-71
2021/03/11 12:02:44;;;;;;;1.53;0.73;;;12.80;99.90;;;;;;5111635;28;20469;-71
2021/03/11 12:05:11;;;;;;;1.57;0.93;;;12.90;99.90;;;;;;5111399;28;20550;-70
2021/03/11 12:07:38;;;;;;;1.67;0.80;;;13.00;99.90;;;;;;5112254;28;20504;-71
2021/03/11 12:10:06;;;;;;;1.60;0.70;;;13.10;99.90;;;;;;5112046;28;20456;-72
2021/03/11 12:12:33;;;;;;;1.60;0.80;;;13.20;99.90;;;;;;5112044;28;20476;-71
2021/03/11 12:15:00;;;;;;;1.90;0.73;;;13.40;99.90;;;;;;5110815;28;20493;-72
2021/03/11 12:17:26;;;;;;;2.40;0.80;;;13.60;99.90;;;;;;5111872;28;21247;-70
2021/03/11 12:19:53;;;;;;;4.13;1.00;;;13.70;99.90;;;;;;5112364;28;20502;-71
2021/03/11 12:22:19;;;;;;;1.90;0.80;;;13.70;99.90;;;;;;5111154;28;20536;-71
2021/03/11 12:24:45;;;;;;;1.80;0.90;;;13.60;99.90;;;;;;5111280;28;20931;-71
2021/03/11 12:27:12;;;;;;;2.17;0.93;;;13.60;99.90;;;;;;5111326;28;20477;-70
2021/03/11 12:29:38;;;;;;;3.50;0.80;;;13.60;99.90;;;;;;5111412;28;20975;-71
2021/03/11 12:32:06;;;;;;;1.43;0.60;;;13.80;99.90;;;;;;5111347;28;20518;-71
2021/03/11 12:34:33;;;;;;;9.53;1.53;;;14.10;99.90;;;;;;5111047;28;20477;-71
2021/03/11 12:36:59;;;;;;;2.03;1.07;;;14.40;99.90;;;;;;5111334;27;20888;-72
2021/03/11 12:39:25;;;;;;;1.73;0.90;;;15.10;99.90;;;;;;5111568;28;20499;-70
2021/03/11 12:41:52;;;;;;;2.27;1.23;;;15.40;99.90;;;;;;5110903;28;20492;-71
2021/03/11 12:44:18;;;;;;;2.00;0.70;;;15.60;99.90;;;;;;5110131;28;20452;-69
2021/03/11 12:46:45;;;;;;;1.50;0.73;;;15.50;99.90;;;;;;5111225;28;20452;-69
2021/03/11 12:49:12;;;;;;;1.90;0.90;;;15.40;99.90;;;;;;5112589;28;20987;-68
2021/03/11 12:51:38;;;;;;;1.30;0.60;;;15.50;99.90;;;;;;5112066;28;20532;-68
2021/03/11 12:54:05;;;;;;;1.97;1.00;;;15.20;99.90;;;;;;5111697;27;20473;-67